Time;durP1;ratioP1;P1;durP2;ratioP2;P2;SDS_P1;SDS_P2;PMS_P1;PMS_P2;Temp;Humidity;BMP_temperature;BMP_pressure;BME280_temperature;BME280_humidity;BME280_pressure;Samples;Min_cycle;Max_cycle;Signal;HPM_P1;HPM_P2
2023/02/27 00:01:42;;;;;;;29.85;6.30;;;;;;;13.32;67.54;93888.44;5059895;28;20429;-75
2023/02/27 00:04:08;;;;;;;37.13;6.57;;;;;;;13.45;66.50;93884.94;5057967;28;20052;-75
2023/02/27 00:06:33;;;;;;;24.15;5.90;;;;;;;13.33;67.86;93884.00;5059649;28;20037;-75
2023/02/27 00:08:59;;;;;;;40.55;6.75;;;;;;;13.33;69.10;93887.41;5058711;28;20028;-75
2023/02/27 00:11:24;;;;;;;39.55;6.15;;;;;;;13.16;70.84;93883.78;5060286;28;20486;-76
2023/02/27 00:13:50;;;;;;;37.10;5.75;;;;;;;13.12;72.25;93874.81;5062203;28;20489;-76
2023/02/27 00:16:15;;;;;;;25.65;5.57;;;;;;;13.02;73.80;93874.44;5059982;28;20035;-77
2023/02/27 00:18:41;;;;;;;36.30;7.43;;;;;;;12.72;75.64;93871.66;5058457;28;20043;-75
2023/02/27 00:21:06;;;;;;;26.00;6.60;;;;;;;12.73;77.94;93856.88;5073055;28;20072;-75
2023/02/27 00:23:32;;;;;;;27.05;6.72;;;;;;;12.61;79.46;93860.16;5059851;28;20124;-75
2023/02/27 00:25:59;;;;;;;29.25;7.10;;;;;;;12.57;80.85;93855.59;5064318;28;20024;-75
2023/02/27 00:28:25;;;;;;;38.35;7.15;;;;;;;12.40;85.24;93859.69;5066936;28;20020;-75
2023/02/27 00:30:50;;;;;;;33.63;6.97;;;;;;;12.52;84.26;93855.44;5065308;28;20032;-75
2023/02/27 00:33:16;;;;;;;34.15;6.55;;;;;;;12.85;78.91;93845.59;5061639;28;20074;-75
2023/02/27 00:35:41;;;;;;;43.58;7.25;;;;;;;12.95;77.33;93850.31;5070571;28;20039;-76
2023/02/27 00:38:06;;;;;;;24.92;6.00;;;;;;;13.11;74.88;93849.81;5059966;28;20021;-75
2023/02/27 00:40:34;;;;;;;31.63;5.75;;;;;;;12.91;76.40;93847.34;5058874;28;20042;-76
2023/02/27 00:43:00;;;;;;;25.52;6.05;;;;;;;12.98;75.74;93852.47;5064707;28;20090;-75
2023/02/27 00:45:26;;;;;;;30.17;6.10;;;;;;;13.03;75.90;93850.06;5062332;28;20024;-76
2023/02/27 00:47:51;;;;;;;40.17;6.70;;;;;;;12.91;77.28;93860.34;5058760;28;20027;-76
2023/02/27 00:50:16;;;;;;;36.40;6.35;;;;;;;13.00;77.36;93871.28;5060738;28;20384;-76
2023/02/27 00:52:42;;;;;;;25.13;5.78;;;;;;;13.00;77.97;93879.84;5058512;28;20036;-76
2023/02/27 00:55:08;;;;;;;18.83;4.70;;;;;;;12.96;79.06;93883.09;5060318;28;20025;-76
2023/02/27 00:57:34;;;;;;;27.20;6.32;;;;;;;12.92;79.04;93882.72;5059170;28;20044;-76
2023/02/27 00:59:59;;;;;;;32.08;6.32;;;;;;;12.88;79.33;93885.94;5059789;28;20791;-77
2023/02/27 01:02:24;;;;;;;26.80;6.85;;;;;;;12.88;79.51;93886.75;5065782;28;20033;-76
2023/02/27 01:04:50;;;;;;;34.65;5.93;;;;;;;12.77;80.23;93882.25;5057191;28;20626;-76
2023/02/27 01:07:15;;;;;;;29.98;6.13;;;;;;;12.56;82.27;93879.97;5059959;28;20029;-76
2023/02/27 01:09:41;;;;;;;28.60;5.60;;;;;;;12.82;80.23;93869.41;5058138;28;20124;-79
2023/02/27 01:12:06;;;;;;;27.50;5.97;;;;;;;12.60;80.80;93863.75;5061029;28;20017;-76
2023/02/27 01:14:32;;;;;;;22.10;6.28;;;;;;;12.66;80.44;93851.72;5076369;28;20079;-77
2023/02/27 01:16:57;;;;;;;31.35;6.10;;;;;;;12.51;81.61;93844.25;5076483;28;20024;-76
2023/02/27 01:19:23;;;;;;;33.58;5.55;;;;;;;12.57;81.79;93840.00;5063219;28;20043;-76
2023/02/27 01:21:49;;;;;;;33.10;5.43;;;;;;;12.41;83.01;93856.88;5063237;28;20082;-76
2023/02/27 01:24:14;;;;;;;26.25;5.10;;;;;;;12.29;84.47;93853.38;5062680;28;20367;-76
2023/02/27 01:26:40;;;;;;;23.80;5.13;;;;;;;12.26;85.18;93855.59;5066476;28;20119;-76
2023/02/27 01:29:05;;;;;;;41.53;6.03;;;;;;;12.46;83.33;93856.25;5063106;28;20503;-76
2023/02/27 01:31:31;;;;;;;22.83;5.80;;;;;;;12.52;82.63;93864.00;5061578;28;20025;-75
2023/02/27 01:33:56;;;;;;;22.98;5.15;;;;;;;12.56;81.63;93859.19;5070278;28;20157;-76
2023/02/27 01:36:22;;;;;;;26.20;6.00;;;;;;;12.63;80.67;93846.97;5075710;28;20385;-76
2023/02/27 01:38:47;;;;;;;26.02;5.28;;;;;;;12.71;79.29;93853.72;5073825;28;20077;-77
2023/02/27 01:41:12;;;;;;;15.60;4.07;;;;;;;12.72;78.69;93853.47;5072864;28;20099;-76
2023/02/27 01:43:59;;;;;;;30.52;4.97;;;;;;;12.74;78.18;93869.66;5072107;28;20040;-76
2023/02/27 01:46:24;;;;;;;25.92;5.05;;;;;;;12.82;77.13;93871.19;5062872;28;20453;-76
2023/02/27 01:48:53;;;;;;;20.50;4.57;;;;;;;12.85;76.38;93879.38;5061272;28;20032;-75
2023/02/27 01:51:20;;;;;;;23.98;4.53;;;;;;;12.91;76.49;93882.91;5063093;28;20528;-77
2023/02/27 01:53:47;;;;;;;16.67;4.30;;;;;;;13.00;74.94;93876.47;5044714;28;20562;-77
2023/02/27 01:56:19;;;;;;;24.00;4.95;;;;;;;12.85;75.92;93884.56;5071463;28;20032;-77
2023/02/27 01:58:46;;;;;;;23.20;4.97;;;;;;;12.78;77.31;93881.22;5052672;28;20036;-76
2023/02/27 02:01:12;;;;;;;27.02;4.57;;;;;;;12.72;78.64;93886.44;5063313;28;20028;-77
2023/02/27 02:04:09;;;;;;;22.15;4.78;;;;;;;12.64;78.93;93892.72;5061820;28;20071;-76
2023/02/27 02:06:36;;;;;;;20.77;4.43;;;;;;;12.55;79.60;93896.56;5040262;28;20421;-77
2023/02/27 02:09:03;;;;;;;26.25;4.53;;;;;;;12.52;79.83;93897.75;5044438;28;20032;-76
2023/02/27 02:11:28;;;;;;;26.83;5.57;;;;;;;12.50;80.01;93906.78;5043163;28;20020;-76
2023/02/27 02:13:59;;;;;;;25.48;5.00;;;;;;;12.50;79.99;93894.59;5062032;28;20032;-76
2023/02/27 02:16:37;;;;;;;24.58;4.95;;;;;;;12.55;79.54;93893.97;5061828;28;20491;-76
2023/02/27 02:19:08;;;;;;;27.42;4.97;;;;;;;12.57;79.47;93903.16;5049934;28;20044;-75
2023/02/27 02:21:56;;;;;;;21.83;4.88;;;;;;;12.52;79.85;93908.16;5062430;28;20039;-76
2023/02/27 02:24:58;;;;;;;20.25;4.80;;;;;;;12.53;79.94;93914.94;5065184;28;20058;-76
2023/02/27 02:27:53;;;;;;;21.80;4.40;;;;;;;12.50;79.97;93910.16;5061735;28;20107;-76
2023/02/27 02:30:27;;;;;;;22.23;4.97;;;;;;;12.56;78.96;93918.94;5052896;28;20090;-76
2023/02/27 02:33:11;;;;;;;27.00;4.88;;;;;;;12.59;78.14;93918.50;5061053;28;20040;-75
2023/02/27 02:35:55;;;;;;;28.10;5.78;;;;;;;12.60;77.81;93926.09;5062408;28;20039;-77
2023/02/27 02:38:45;;;;;;;24.77;4.78;;;;;;;12.68;77.07;93933.63;5061495;28;20024;-76
2023/02/27 02:41:34;;;;;;;28.73;5.20;;;;;;;12.66;76.35;93956.44;5060628;28;20502;-75
2023/02/27 02:44:01;;;;;;;20.38;4.93;;;;;;;12.72;75.95;94047.53;5036877;28;20491;-76
2023/02/27 02:46:35;;;;;;;24.83;4.47;;;;;;;12.15;79.31;94116.59;5052712;28;20036;-76
2023/02/27 02:49:17;;;;;;;16.38;2.67;;;;;;;9.24;100.00;94192.03;5062159;28;20078;-75
2023/02/27 02:51:52;;;;;;;7.07;2.10;;;;;;;8.93;100.00;94194.03;5060667;28;20037;-76
2023/02/27 02:54:38;;;;;;;7.07;1.10;;;;;;;9.30;100.00;94211.97;5042824;28;20507;-76
2023/02/27 02:57:09;;;;;;;7.82;1.23;;;;;;;9.41;100.00;94219.25;5044667;28;20035;-76
2023/02/27 03:00:08;;;;;;;3.30;0.88;;;;;;;9.32;100.00;94230.69;5054720;28;20028;-77
2023/02/27 03:02:39;;;;;;;3.03;1.00;;;;;;;9.19;100.00;94219.38;5060461;28;20526;-77
2023/02/27 03:05:08;;;;;;;3.22;0.57;;;;;;;9.18;100.00;94233.28;5061460;28;20063;-77
2023/02/27 03:07:54;;;;;;;1.65;0.40;;;;;;;9.21;100.00;94227.78;5074295;28;20039;-76
2023/02/27 03:10:26;;;;;;;0.65;0.30;;;;;;;9.40;100.00;94234.94;5043573;28;20092;-75
2023/02/27 03:12:56;;;;;;;2.53;0.50;;;;;;;9.24;100.00;94242.91;5047830;28;20031;-76
2023/02/27 03:15:25;;;;;;;1.73;0.30;;;;;;;9.28;100.00;94257.06;5050756;28;20074;-77
2023/02/27 03:17:59;;;;;;;2.47;0.30;;;;;;;9.17;100.00;94258.31;5042507;28;20135;-76
2023/02/27 03:20:46;;;;;;;4.18;0.30;;;;;;;9.18;100.00;94261.72;5059910;28;20494;-77
2023/02/27 03:23:35;;;;;;;1.13;0.30;;;;;;;9.06;100.00;94255.38;5060800;28;20497;-77
2023/02/27 03:26:01;;;;;;;2.40;0.45;;;;;;;8.99;100.00;94269.00;5041730;28;20486;-77
2023/02/27 03:28:31;;;;;;;2.33;0.45;;;;;;;8.96;100.00;94273.72;5060434;28;20078;-76
2023/02/27 03:31:00;;;;;;;1.55;0.50;;;;;;;8.82;100.00;94266.78;5059812;28;20396;-76
2023/02/27 03:33:31;;;;;;;1.73;0.70;;;;;;;8.73;100.00;94262.69;5044444;28;20016;-76
2023/02/27 03:36:19;;;;;;;2.63;0.52;;;;;;;8.73;100.00;94244.59;5074285;28;20041;-76
2023/02/27 03:38:52;;;;;;;2.33;0.77;;;;;;;8.58;100.00;94231.69;5070787;28;20070;-77
2023/02/27 03:41:27;;;;;;;2.28;0.88;;;;;;;8.65;100.00;94203.38;5042426;28;20379;-76
2023/02/27 03:44:12;;;;;;;0.50;0.40;;;;;;;8.64;100.00;94200.00;5062101;28;20032;-78
2023/02/27 03:46:38;;;;;;;0.73;0.32;;;;;;;8.65;100.00;94211.94;5048437;28;20044;-77
2023/02/27 03:49:04;;;;;;;4.88;0.60;;;;;;;8.61;100.00;94233.91;5078448;28;20401;-79
2023/02/27 03:51:30;;;;;;;0.55;0.38;;;;;;;8.54;100.00;94245.91;5060917;28;20036;-76
2023/02/27 03:54:15;;;;;;;1.15;0.50;;;;;;;8.58;100.00;94243.78;5060212;28;20035;-76
2023/02/27 03:56:44;;;;;;;0.50;0.50;;;;;;;8.35;100.00;94249.78;5074095;28;20055;-75
2023/02/27 03:59:09;;;;;;;;;;;;;;;8.48;100.00;94256.16;5045724;28;20424;-79
2023/02/27 04:01:35;;;;;;;0.75;0.75;;;;;;;8.45;100.00;94259.84;5048465;28;19916;-78
2023/02/27 04:04:11;;;;;;;1.50;0.40;;;;;;;8.52;100.00;94267.69;5060934;28;20066;-79
2023/02/27 04:09:27;;;;;;;1.38;0.40;;;;;;;8.52;100.00;94275.44;5044022;28;20035;-77
2023/02/27 04:11:58;;;;;;;2.22;0.60;;;;;;;8.50;100.00;94278.22;5048999;28;20469;-77
2023/02/27 04:14:33;;;;;;;1.80;0.40;;;;;;;8.62;100.00;94294.06;5060839;28;20120;-76
2023/02/27 04:17:28;;;;;;;3.33;0.30;;;;;;;8.59;100.00;94305.53;5074072;28;20051;-76
2023/02/27 04:20:17;;;;;;;2.42;0.52;;;;;;;8.53;100.00;94316.56;5041672;28;20441;-76
2023/02/27 04:23:05;;;;;;;2.35;0.50;;;;;;;8.41;100.00;94310.22;5042375;28;20494;-76
2023/02/27 04:25:37;;;;;;;1.08;0.50;;;;;;;8.36;100.00;94318.47;5060192;28;20119;-76
2023/02/27 04:28:03;;;;;;;2.38;0.40;;;;;;;8.41;100.00;94317.97;5059934;28;20037;-76
2023/02/27 04:30:37;;;;;;;1.88;0.70;;;;;;;8.21;100.00;94309.84;5059546;28;20040;-76
2023/02/27 04:33:35;;;;;;;1.92;0.50;;;;;;;8.04;100.00;94297.22;5041978;28;20036;-76
2023/02/27 04:36:20;;;;;;;5.75;0.90;;;;;;;8.27;100.00;94310.94;5015453;28;20033;-75
2023/02/27 04:38:57;;;;;;;3.95;2.85;;;;;;;8.25;100.00;94318.81;5060860;28;20513;-76
2023/02/27 04:41:31;;;;;;;33.25;23.33;;;;;;;8.24;100.00;94331.91;5042408;28;20032;-75
2023/02/27 04:43:58;;;;;;;24.15;17.73;;;;;;;8.20;100.00;94339.19;5045342;28;20033;-75
2023/02/27 04:46:26;;;;;;;4.47;4.07;;;;;;;8.03;100.00;94336.91;5059503;28;20192;-76
2023/02/27 04:48:57;;;;;;;4.15;2.17;;;;;;;7.99;100.00;94343.38;5044063;28;20044;-76
2023/02/27 04:51:34;;;;;;;2.25;1.40;;;;;;;8.02;100.00;94355.91;5076029;28;20036;-75
2023/02/27 04:54:12;;;;;;;3.70;3.20;;;;;;;8.10;100.00;94373.91;5056658;28;20510;-75
2023/02/27 04:56:44;;;;;;;4.25;1.10;;;;;;;7.95;100.00;94382.38;5054006;28;20107;-75
2023/02/27 04:59:20;;;;;;;10.90;7.90;;;;;;;7.83;100.00;94399.16;5059260;28;20031;-75
2023/02/27 05:01:56;;;;;;;9.80;2.97;;;;;;;7.71;100.00;94410.81;5055391;28;20509;-75
2023/02/27 05:04:24;;;;;;;16.40;3.20;;;;;;;11.41;100.00;95107.19;5045587;28;20059;-75
2023/02/27 05:06:52;;;;;;;8.50;5.05;;;;;;;7.49;100.00;95107.16;5058979;28;20029;-81
2023/02/27 05:09:26;;;;;;;66.38;36.10;;;;;;;7.38;100.00;95122.84;5058669;28;20031;-81
2023/02/27 05:11:57;;;;;;;7.18;5.93;;;;;;;7.24;100.00;95111.28;5061266;28;20032;-77
2023/02/27 05:14:41;;;;;;;8.45;4.85;;;;;;;7.15;100.00;95080.44;5061428;28;20100;-79
2023/02/27 05:17:19;;;;;;;7.78;5.50;;;;;;;7.16;100.00;95026.22;5068529;28;20466;-80
2023/02/27 05:19:45;;;;;;;10.23;6.25;;;;;;;7.26;100.00;94992.66;5051988;28;20097;-80
2023/02/27 05:22:27;;;;;;;14.48;6.82;;;;;;;7.21;100.00;94948.50;5063928;28;20033;-79
2023/02/27 05:25:27;;;;;;;7.45;6.35;;;;;;;7.49;100.00;94883.00;5057011;28;20033;-78
2023/02/27 05:28:05;;;;;;;6.88;5.95;;;;;;;7.55;100.00;94815.38;5060317;28;20628;-77
2023/02/27 05:30:35;;;;;;;7.28;6.32;;;;;;;7.63;100.00;94771.63;5056441;28;20555;-77
2023/02/27 05:33:06;;;;;;;7.75;5.57;;;;;;;7.67;100.00;94742.00;5043281;28;20025;-77
2023/02/27 05:35:51;;;;;;;9.48;5.82;;;;;;;7.67;100.00;94718.00;5056711;28;20094;-78
2023/02/27 05:38:22;;;;;;;8.90;4.80;;;;;;;7.82;100.00;94698.34;5042483;28;20055;-78
2023/02/27 05:41:01;;;;;;;7.45;5.28;;;;;;;7.63;100.00;94709.78;5070913;28;20042;-78
2023/02/27 05:43:33;;;;;;;8.02;6.45;;;;;;;7.83;100.00;94689.66;5068704;28;20040;-78
2023/02/27 05:46:04;;;;;;;10.40;8.15;;;;;;;7.76;100.00;94666.28;5058412;28;20081;-79
2023/02/27 05:48:34;;;;;;;11.98;10.13;;;;;;;7.85;100.00;94659.34;5060855;28;20287;-80
2023/02/27 05:51:01;;;;;;;13.30;9.63;;;;;;;7.73;100.00;94661.47;5056509;28;20044;-79
2023/02/27 05:53:29;;;;;;;12.02;9.68;;;;;;;7.53;100.00;94656.75;5073757;28;20024;-79
2023/02/27 05:55:58;;;;;;;13.75;9.77;;;;;;;7.23;100.00;94671.03;5095177;28;20029;-81
2023/02/27 05:58:41;;;;;;;12.25;9.57;;;;;;;7.45;100.00;94685.09;5095366;28;20023;-80
2023/02/27 06:01:08;;;;;;;9.73;8.48;;;;;;;7.52;100.00;94681.72;5084039;28;20021;-80
2023/02/27 06:03:35;;;;;;;10.07;8.27;;;;;;;7.69;100.00;94675.63;5076376;28;20020;-83
2023/02/27 06:06:03;;;;;;;10.13;9.07;;;;;;;10.71;100.00;94531.44;5108212;28;20452;-80
2023/02/27 06:08:29;;;;;;;9.45;6.82;;;;;;;13.13;96.89;94521.19;5090431;28;20034;-80
2023/02/27 06:10:54;;;;;;;9.27;6.95;;;;;;;14.07;87.64;94507.00;5095798;28;20032;-79
2023/02/27 06:13:21;;;;;;;7.53;6.93;;;;;;;14.24;80.27;94508.16;5091828;28;20111;-79
2023/02/27 06:15:46;;;;;;;7.05;6.13;;;;;;;13.99;79.10;94516.81;5084805;28;20033;-84
2023/02/27 06:18:13;;;;;;;6.90;6.30;;;;;;;14.02;81.38;94525.03;5068882;28;20404;-84
2023/02/27 06:20:39;;;;;;;7.43;6.82;;;;;;;14.91;76.28;94517.38;5070396;28;20074;-82
2023/02/27 06:23:05;;;;;;;8.15;7.43;;;;;;;14.40;73.89;94519.97;5058516;28;20029;-84
2023/02/27 06:28:08;;;;;;;7.03;6.22;;;;;;;13.79;77.76;94518.63;5058485;26;20057;-81
2023/02/27 06:30:33;;;;;;;8.10;6.38;;;;;;;13.13;79.38;94503.00;5019601;28;20033;-80
2023/02/27 06:32:59;;;;;;;6.43;5.70;;;;;;;13.44;79.03;94516.22;5029583;28;20021;-81
2023/02/27 06:35:25;;;;;;;5.97;5.50;;;;;;;13.68;75.94;94517.44;5047935;28;20024;-83
2023/02/27 06:37:51;;;;;;;6.88;6.38;;;;;;;13.84;74.11;94530.03;5009272;28;20055;-80
2023/02/27 06:40:17;;;;;;;6.78;6.18;;;;;;;13.73;75.22;94528.06;5066731;28;20036;-80
2023/02/27 06:42:43;;;;;;;6.93;6.32;;;;;;;13.71;74.59;94512.63;5050183;28;20033;-79
2023/02/27 06:45:11;;;;;;;6.88;6.28;;;;;;;13.15;78.29;94537.38;5046209;28;20489;-79
2023/02/27 06:47:37;;;;;;;7.53;6.82;;;;;;;13.09;79.07;94546.78;5033184;28;20024;-79
2023/02/27 06:50:04;;;;;;;5.47;4.97;;;;;;;12.65;81.50;94541.97;5038767;28;20025;-78
2023/02/27 06:52:31;;;;;;;7.57;6.97;;;;;;;12.46;82.25;94541.88;5034262;28;20043;-77
2023/02/27 06:54:57;;;;;;;7.50;6.88;;;;;;;11.82;85.13;94529.09;5045323;28;20508;-78
2023/02/27 06:57:23;;;;;;;9.25;7.57;;;;;;;11.09;89.44;94535.44;5052304;28;20054;-79
2023/02/27 06:59:48;;;;;;;8.10;7.35;;;;;;;10.65;94.30;94537.34;5046899;28;20497;-77
2023/02/27 07:02:14;;;;;;;8.25;7.10;;;;;;;11.46;89.30;94536.19;5030578;28;20043;-78
2023/02/27 07:04:40;;;;;;;8.70;7.20;;;;;;;11.81;86.54;94535.31;5024548;28;20043;-77
2023/02/27 07:07:06;;;;;;;6.32;5.72;;;;;;;13.65;78.38;94541.25;5038256;28;20009;-79
2023/02/27 07:09:32;;;;;;;6.75;6.15;;;;;;;13.48;77.07;94537.44;5023795;28;20068;-76
2023/02/27 07:11:57;;;;;;;5.57;5.07;;;;;;;12.45;82.61;94546.28;5026501;28;20115;-77
2023/02/27 07:14:24;;;;;;;7.40;6.70;;;;;;;12.47;82.89;94548.69;5008746;28;20036;-76
2023/02/27 07:16:52;;;;;;;18.40;5.85;;;;;;;13.67;77.44;94541.88;5018906;28;20040;-77
2023/02/27 07:19:18;;;;;;;5.90;5.50;;;;;;;15.56;65.59;94547.56;5005272;28;20048;-78
2023/02/27 07:21:44;;;;;;;5.95;5.45;;;;;;;16.77;56.74;94548.72;5036492;28;20570;-79
2023/02/27 07:24:09;;;;;;;5.57;5.18;;;;;;;18.94;49.57;94542.78;5018371;28;20040;-79
2023/02/27 07:26:35;;;;;;;5.78;5.38;;;;;;;19.13;49.36;94549.47;5029758;28;20559;-79
2023/02/27 07:29:02;;;;;;;5.55;4.97;;;;;;;18.23;49.96;94549.09;5034905;28;20036;-78
2023/02/27 07:31:27;;;;;;;6.90;5.00;;;;;;;17.03;51.79;94552.03;5036450;28;20029;-81
2023/02/27 07:33:53;;;;;;;6.38;5.88;;;;;;;15.75;55.97;94566.72;5052144;28;20040;-76
2023/02/27 07:36:18;;;;;;;6.30;5.80;;;;;;;15.23;60.43;94570.41;5038806;28;20039;-79
2023/02/27 07:38:44;;;;;;;5.07;4.68;;;;;;;16.07;56.94;94564.84;5030065;28;20021;-79
2023/02/27 07:41:09;;;;;;;5.55;5.15;;;;;;;17.10;53.86;94561.41;5031385;28;20032;-78
2023/02/27 07:43:34;;;;;;;5.85;5.25;;;;;;;17.02;52.58;94572.16;5029732;28;20420;-78
2023/02/27 07:46:02;;;;;;;5.93;5.35;;;;;;;18.16;51.08;94558.91;5038858;28;20082;-78
2023/02/27 07:48:29;;;;;;;5.35;4.95;;;;;;;19.34;47.82;94569.81;5053267;28;20112;-78
2023/02/27 07:50:54;;;;;;;5.80;5.30;;;;;;;17.92;48.80;94571.16;5017951;28;20044;-80
2023/02/27 07:53:20;;;;;;;6.30;5.90;;;;;;;17.26;53.34;94584.34;5049504;28;20025;-78
2023/02/27 07:55:45;;;;;;;5.53;5.13;;;;;;;17.17;52.14;94582.25;5040472;28;20263;-78
2023/02/27 07:58:11;;;;;;;5.82;5.43;;;;;;;17.03;51.43;94580.81;5042712;28;20568;-79
2023/02/27 08:00:37;;;;;;;7.25;6.72;;;;;;;16.32;55.84;94581.31;5015894;28;20035;-79
2023/02/27 08:03:02;;;;;;;7.05;6.38;;;;;;;13.90;59.87;94599.53;5059376;28;20107;-79
2023/02/27 08:05:28;;;;;;;6.40;5.90;;;;;;;15.69;56.17;94585.84;5036822;28;20320;-79
2023/02/27 08:07:53;;;;;;;9.05;6.10;;;;;;;15.41;59.38;94588.00;5017613;28;20033;-80
2023/02/27 08:10:19;;;;;;;9.10;6.32;;;;;;;14.46;63.11;94588.72;5019304;28;20489;-81
2023/02/27 08:12:44;;;;;;;6.28;5.72;;;;;;;13.38;69.21;94594.25;5035021;28;20037;-82
2023/02/27 08:15:10;;;;;;;6.72;6.18;;;;;;;12.39;75.35;94598.19;5057200;28;20080;-81
2023/02/27 08:17:35;;;;;;;7.63;7.03;;;;;;;13.67;71.43;94597.31;5061991;28;20020;-83
2023/02/27 08:20:01;;;;;;;6.82;6.30;;;;;;;13.52;69.91;94575.88;5076786;28;20024;-82
2023/02/27 08:22:26;;;;;;;6.93;6.40;;;;;;;15.10;63.57;94581.69;5063879;28;20059;-80
2023/02/27 08:24:52;;;;;;;8.45;6.18;;;;;;;15.09;63.34;94580.09;5047698;28;20024;-80
2023/02/27 08:27:17;;;;;;;6.82;6.20;;;;;;;13.39;68.16;94575.84;5043002;28;20095;-81
2023/02/27 08:29:44;;;;;;;8.45;7.65;;;;;;;13.08;72.57;94594.56;5035625;28;20024;-79
2023/02/27 08:32:09;;;;;;;9.13;7.97;;;;;;;12.85;75.17;94596.63;5035783;28;20044;-80
2023/02/27 08:34:35;;;;;;;8.25;7.43;;;;;;;12.40;75.80;94604.97;5033152;28;20029;-80
2023/02/27 08:37:00;;;;;;;8.50;7.35;;;;;;;12.35;79.22;94608.16;5028102;28;20037;-80
2023/02/27 08:39:26;;;;;;;8.43;7.25;;;;;;;12.61;74.15;94599.72;5021155;28;20053;-80
2023/02/27 08:41:51;;;;;;;7.20;6.60;;;;;;;12.65;72.98;94613.91;5014717;28;20041;-80
2023/02/27 08:44:18;;;;;;;8.02;7.40;;;;;;;12.77;73.14;94616.78;5027837;28;20028;-80
2023/02/27 08:46:43;;;;;;;8.20;7.32;;;;;;;14.27;65.16;94611.97;5045398;28;20072;-84
2023/02/27 08:49:09;;;;;;;8.00;7.38;;;;;;;13.80;64.01;94629.56;5020462;28;20136;-85
2023/02/27 08:51:34;;;;;;;7.82;7.13;;;;;;;14.80;64.37;94627.56;5062286;28;20025;-80
2023/02/27 08:54:00;;;;;;;8.55;7.85;;;;;;;16.30;56.68;94609.50;5039202;28;20453;-85
2023/02/27 08:56:26;;;;;;;7.30;6.70;;;;;;;15.99;57.21;94628.59;5010676;28;20013;-81
2023/02/27 08:58:52;;;;;;;7.85;7.25;;;;;;;15.07;59.73;94634.28;5010824;28;20236;-81
2023/02/27 09:01:18;;;;;;;8.35;7.75;;;;;;;12.73;67.91;94631.16;5010155;28;20044;-84
2023/02/27 09:03:44;;;;;;;8.95;8.13;;;;;;;14.53;64.61;94641.63;5008571;28;20041;-80
2023/02/27 09:06:10;;;;;;;9.77;8.80;;;;;;;13.68;65.35;94637.13;5018307;28;20647;-81
2023/02/27 09:08:35;;;;;;;9.70;8.68;;;;;;;14.79;62.08;94633.78;4995513;28;20033;-81
2023/02/27 09:11:01;;;;;;;9.65;8.95;;;;;;;13.46;64.22;94644.31;5002263;28;20802;-82
2023/02/27 09:13:27;;;;;;;8.77;8.05;;;;;;;15.77;59.93;94646.44;5034036;28;20902;-81
2023/02/27 09:15:53;;;;;;;9.70;8.90;;;;;;;13.19;66.76;94642.63;5019249;28;20033;-79
2023/02/27 09:18:18;;;;;;;9.27;8.57;;;;;;;15.07;63.35;94636.91;5000418;28;20153;-79
2023/02/27 09:20:44;;;;;;;8.82;8.13;;;;;;;14.43;63.32;94642.03;5001019;28;20478;-79
2023/02/27 09:23:10;;;;;;;10.10;9.20;;;;;;;13.81;66.76;94639.78;5013858;28;20470;-80
2023/02/27 09:25:35;;;;;;;11.65;9.18;;;;;;;12.96;70.38;94642.88;5024794;28;20555;-79
2023/02/27 09:28:01;;;;;;;8.77;8.00;;;;;;;14.36;66.52;94635.22;5015819;28;20040;-80
2023/02/27 09:30:26;;;;;;;8.43;7.70;;;;;;;14.68;64.90;94642.19;4994417;28;20053;-80
2023/02/27 09:32:51;;;;;;;9.13;8.48;;;;;;;14.27;66.86;94642.41;5009213;28;20041;-79
2023/02/27 09:35:19;;;;;;;8.13;7.50;;;;;;;14.85;63.47;94646.00;5017052;28;20681;-81
2023/02/27 09:37:45;;;;;;;9.45;8.73;;;;;;;14.04;64.98;94637.59;4992761;28;20493;-80
2023/02/27 09:40:23;;;;;;;8.32;7.72;;;;;;;14.41;66.07;94646.66;5019183;28;20031;-80
2023/02/27 09:42:50;;;;;;;8.20;7.60;;;;;;;14.47;66.55;94652.88;5026005;28;20033;-80
2023/02/27 09:45:24;;;;;;;8.13;7.40;;;;;;;13.68;70.76;94657.97;5021196;28;20470;-82
2023/02/27 09:47:56;;;;;;;8.27;7.55;;;;;;;14.17;69.11;94657.63;5018909;28;20064;-81
2023/02/27 09:50:44;;;;;;;9.20;7.43;;;;;;;14.44;67.49;94648.88;4999844;28;20029;-81
2023/02/27 09:53:18;;;;;;;8.63;8.00;;;;;;;14.33;67.13;94653.84;4997682;28;20041;-79
2023/02/27 09:55:44;;;;;;;7.90;7.05;;;;;;;15.36;66.33;94660.88;5012764;28;20413;-78
2023/02/27 09:58:31;;;;;;;7.30;6.63;;;;;;;16.00;62.44;94658.94;5039604;28;20557;-77
2023/02/27 10:01:09;;;;;;;7.07;6.53;;;;;;;16.47;61.94;94659.44;5030374;28;20152;-77
2023/02/27 10:03:52;;;;;;;7.10;6.60;;;;;;;15.38;63.46;94653.66;5039474;28;20021;-77
2023/02/27 10:06:42;;;;;;;6.28;5.43;;;;;;;15.66;62.66;94643.69;5002292;28;20029;-78
2023/02/27 10:09:38;;;;;;;7.13;6.63;;;;;;;16.01;60.21;94638.84;5014628;28;20802;-78
2023/02/27 10:12:16;;;;;;;6.65;6.03;;;;;;;16.14;61.34;94642.19;5044536;28;20066;-79
2023/02/27 10:14:54;;;;;;;5.70;4.97;;;;;;;14.17;67.85;94649.81;5039102;28;20033;-77
2023/02/27 10:17:29;;;;;;;6.07;4.77;;;;;;;15.29;62.01;94642.63;5047805;28;20033;-77
2023/02/27 10:19:55;;;;;;;5.43;4.82;;;;;;;16.34;60.69;94653.28;5038460;28;20030;-77
2023/02/27 10:22:34;;;;;;;4.55;4.15;;;;;;;16.77;57.76;94642.06;5053079;28;20040;-76
2023/02/27 10:25:04;;;;;;;9.35;3.88;;;;;;;16.69;58.31;94643.16;5043338;28;20543;-77
2023/02/27 10:27:31;;;;;;;5.90;4.28;;;;;;;16.67;57.37;94644.38;5005831;28;20564;-77
2023/02/27 10:30:36;;;;;;;5.43;4.15;;;;;;;17.09;56.31;94635.69;5025000;28;20037;-77
2023/02/27 10:33:12;;;;;;;4.68;4.20;;;;;;;16.91;59.45;94647.97;5024873;28;20055;-77
2023/02/27 10:35:40;;;;;;;3.50;3.00;;;;;;;16.70;59.51;94641.31;5015095;28;20111;-77
2023/02/27 10:38:43;;;;;;;7.05;3.00;;;;;;;16.31;58.94;94632.78;5014572;28;20044;-77
2023/02/27 10:41:14;;;;;;;8.10;3.75;;;;;;;16.23;59.58;94634.88;5015853;28;20052;-77
2023/02/27 10:43:40;;;;;;;11.63;5.68;;;;;;;15.75;62.05;94621.53;5028681;28;20805;-76
2023/02/27 10:46:13;;;;;;;6.85;6.30;;;;;;;17.01;60.76;94609.84;5040154;28;20034;-78
2023/02/27 10:48:39;;;;;;;3.42;2.92;;;;;;;16.83;60.25;94615.03;5042220;28;20036;-77
2023/02/27 10:51:26;;;;;;;4.03;3.10;;;;;;;16.20;60.19;94624.84;5016358;28;20586;-75
2023/02/27 10:54:20;;;;;;;5.60;2.95;;;;;;;15.47;60.82;94621.06;5022064;28;20037;-75
2023/02/27 10:56:52;;;;;;;10.73;4.55;;;;;;;15.08;65.03;94622.84;4982899;28;20074;-77
2023/02/27 10:59:38;;;;;;;4.75;4.35;;;;;;;15.13;64.89;94619.59;5015267;28;20032;-79
2023/02/27 11:02:24;;;;;;;8.35;6.57;;;;;;;15.67;66.80;94622.59;5020140;28;20053;-76
2023/02/27 11:04:55;;;;;;;7.32;6.70;;;;;;;15.94;65.11;94615.41;4996740;28;20037;-77
2023/02/27 11:07:33;;;;;;;7.60;6.90;;;;;;;15.62;65.76;94622.44;5024216;28;20068;-77
2023/02/27 11:10:24;;;;;;;9.35;6.07;;;;;;;15.06;68.08;94627.47;4998126;28;20430;-77
2023/02/27 11:12:58;;;;;;;6.63;5.97;;;;;;;15.32;67.50;94626.56;5020840;28;20881;-79
2023/02/27 11:15:27;;;;;;;7.18;6.68;;;;;;;15.45;68.40;94620.47;5050945;28;20020;-76
2023/02/27 11:17:53;;;;;;;6.63;6.07;;;;;;;16.00;65.63;94616.34;5035468;28;20024;-77
2023/02/27 11:20:28;;;;;;;7.47;6.53;;;;;;;16.12;65.79;94606.81;5035019;28;20037;-77
2023/02/27 11:23:21;;;;;;;7.03;6.10;;;;;;;15.59;65.70;94606.38;5020006;28;20040;-76
2023/02/27 11:25:47;;;;;;;6.80;6.20;;;;;;;16.05;65.17;94600.84;5035851;28;20033;-78
2023/02/27 11:28:15;;;;;;;7.18;5.95;;;;;;;16.07;62.79;94596.22;5033013;28;20166;-78
2023/02/27 11:30:42;;;;;;;7.35;6.53;;;;;;;16.01;63.96;94584.81;5040884;28;20021;-77
2023/02/27 11:33:19;;;;;;;11.27;7.60;;;;;;;14.95;66.10;94585.59;5051562;28;20150;-77
2023/02/27 11:35:50;;;;;;;10.18;7.60;;;;;;;14.78;67.93;94593.06;5038209;28;20075;-77
2023/02/27 11:38:23;;;;;;;9.25;7.10;;;;;;;14.57;69.64;94591.50;5046056;28;20031;-79
2023/02/27 11:40:56;;;;;;;9.00;8.15;;;;;;;14.89;71.45;94584.59;5042679;28;20151;-77
2023/02/27 11:43:27;;;;;;;9.07;8.30;;;;;;;14.93;71.07;94591.00;5038008;28;20033;-78
2023/02/27 11:45:56;;;;;;;13.25;8.00;;;;;;;15.40;69.02;94581.97;5032040;28;20064;-78
2023/02/27 11:48:25;;;;;;;;;;;;;;;15.62;67.79;94592.91;5040789;28;20070;-76
2023/02/27 11:51:09;;;;;;;9.63;8.73;;;;;;;15.30;66.80;94594.66;5037269;28;19939;-80
2023/02/27 11:53:56;;;;;;;8.95;8.13;;;;;;;15.47;67.94;94602.81;5054479;28;20067;-79
2023/02/27 11:56:36;;;;;;;12.02;6.75;;;;;;;15.91;65.44;94605.38;5059360;28;20505;-79